Weather History for Sturgeon Bay, WI

Change the Weather History Date:

Saturday, November 9, 2013

  Actual Average Record
Temperature  
Mean Temperature 42 °F -  
Max Temperature 46 °F 44 °F 73 °F (1999)
Min Temperature 39 °F 32 °F 17 °F (2003)
Degree Days  
Heating Degree Days 22    
Moisture  
Dew Point 34 °F    
Average Humidity 71    
Maximum Humidity 87    
Minimum Humidity 53    
Precipitation  
Precipitation 0.34 in - - ()
Sea Level Pressure  
Sea Level Pressure 29.76 in    
Wind  
Wind Speed 17 mph (WSW)    
Max Wind Speed 25 mph    
Max Gust Speed 34 mph    
Visibility 10 miles    
Events      
Averages and records for this station are not official NWS values.
T = Trace of Precipitation, MM = Missing Value Source: NWS Daily Summary

Daily Weather History Graph

Daily Weather History Graph

Search for Another Location

Airport:

Trip Planner

Search our weather history database for the weather conditions in past years. The results will help you decide how hot, cold, wet, or windy it might be!

Date:

Astronomy

Nov. 09, 2013 Rise Set
Actual Time 6:39 AM CST 4:27 PM CST
Civil Twilight 6:07 AM CST 4:58 PM CST
Nautical Twilight 5:32 AM CST 5:33 PM CST
Astronomical Twilight 4:58 AM CST 6:07 PM CST
Moon 12:13 PM CST (11/9) 11:00 PM CST (11/9)
Length of Visible Light 10h 50m
Length of Day
9h 48m
Waxing Crescent, 44% of the Moon is Illuminated
Nov 9
Waxing Crescent
Nov 9
First Quarter
Nov 17
Full
Nov 25
Last Quarter
Dec 2
New

Hourly Weather History & Observations

Time (CST) Temp. Windchill Dew Point Humidity Pressure Visibility Wind Dir Wind Speed Gust Speed Precip Events Conditions
12:15 AM 42.8 °F 34.0 °F 35.6 °F 76% 29.85 in 10.0 mi South 20.7 mph 32.2 mph 0.02 in   Overcast
12:35 AM 42.8 °F 34.0 °F 35.6 °F 76% 29.84 in 10.0 mi South 20.7 mph 26.5 mph 0.05 in   Overcast
12:55 AM 42.8 °F 34.8 °F 35.6 °F 76% 29.81 in 10.0 mi South 17.3 mph 25.3 mph 0.07 in   Overcast
1:15 AM 42.8 °F 34.3 °F 35.6 °F 76% 29.80 in 10.0 mi SSE 19.6 mph 23.0 mph 0.02 in   Overcast
1:35 AM 42.8 °F 34.3 °F 37.4 °F 81% 29.79 in 10.0 mi South 19.6 mph 31.1 mph 0.07 in   Overcast
1:55 AM 42.8 °F 34.5 °F 37.4 °F 81% 29.77 in 10.0 mi South 18.4 mph 28.8 mph 0.11 in   Overcast
2:15 AM 41.0 °F 32.8 °F 37.4 °F 87% 29.76 in 10.0 mi South 16.1 mph 24.2 mph 0.04 in   Overcast
2:35 AM 41.0 °F 32.2 °F 35.6 °F 81% 29.75 in 9.0 mi South 18.4 mph 28.8 mph 0.10 in   Overcast
2:55 AM 41.0 °F 33.9 °F 37.4 °F 87% 29.72 in 9.0 mi South 12.7 mph - 0.15 in   Overcast
3:15 AM 41.0 °F 33.5 °F 37.4 °F 87% 29.70 in 10.0 mi South 13.8 mph 18.4 mph 0.01 in   Overcast
3:35 AM 42.8 °F 35.1 °F 37.4 °F 81% 29.69 in 10.0 mi South 16.1 mph 20.7 mph 0.01 in   Overcast
3:55 AM 42.8 °F 35.4 °F 37.4 °F 81% 29.69 in 10.0 mi South 15.0 mph - 0.01 in   Overcast
4:15 AM 42.8 °F 35.1 °F 37.4 °F 81% 29.67 in 10.0 mi South 16.1 mph 21.9 mph N/A   Overcast
4:35 AM 42.8 °F 36.6 °F 37.4 °F 81% 29.67 in 10.0 mi SSW 11.5 mph 18.4 mph N/A   Overcast
4:55 AM 42.8 °F 37.0 °F 35.6 °F 76% 29.67 in 10.0 mi South 10.4 mph - N/A   Mostly Cloudy
5:15 AM 42.8 °F 37.0 °F 35.6 °F 76% 29.66 in 10.0 mi SSW 10.4 mph - N/A   Overcast
5:35 AM 42.8 °F 37.0 °F 35.6 °F 76% 29.66 in 10.0 mi SSW 10.4 mph - N/A   Overcast
5:55 AM 41.0 °F 34.3 °F 35.6 °F 81% 29.66 in 10.0 mi SSW 11.5 mph - N/A   Scattered Clouds
6:15 AM 41.0 °F 35.2 °F 35.6 °F 81% 29.66 in 10.0 mi SSW 9.2 mph - N/A   Mostly Cloudy
6:35 AM 41.0 °F 34.7 °F 35.6 °F 81% 29.66 in 10.0 mi SSW 10.4 mph - N/A   Overcast
6:55 AM 42.8 °F 37.0 °F 35.6 °F 76% 29.66 in 10.0 mi SW 10.4 mph - N/A   Mostly Cloudy
7:15 AM 42.8 °F 37.0 °F 37.4 °F 81% 29.66 in 10.0 mi SSW 10.4 mph - N/A   Overcast
7:35 AM 42.8 °F 36.6 °F 37.4 °F 81% 29.66 in 10.0 mi SW 11.5 mph - N/A   Overcast
7:55 AM 44.6 °F 38.8 °F 37.4 °F 76% 29.66 in 10.0 mi SW 11.5 mph - N/A   Overcast
8:15 AM 44.6 °F 38.1 °F 37.4 °F 76% 29.66 in 10.0 mi SW 13.8 mph - N/A   Overcast
8:35 AM 44.6 °F 38.1 °F 37.4 °F 76% 29.66 in 10.0 mi SW 13.8 mph 17.3 mph N/A   Overcast
8:55 AM 46.4 °F 39.8 °F 37.4 °F 71% 29.66 in 10.0 mi SW 16.1 mph 20.7 mph N/A   Overcast
9:15 AM 46.4 °F 39.8 °F 37.4 °F 71% 29.67 in 10.0 mi WSW 16.1 mph 20.7 mph N/A   Overcast
9:35 AM 44.6 °F 37.4 °F 39.2 °F 81% 29.67 in 10.0 mi WSW 16.1 mph 21.9 mph N/A   Overcast
9:55 AM 44.6 °F 37.8 °F 39.2 °F 81% 29.67 in 10.0 mi SW 15.0 mph 20.7 mph N/A   Overcast
10:15 AM 44.6 °F 37.8 °F 39.2 °F 81% 29.67 in 10.0 mi WSW 15.0 mph 24.2 mph N/A   Overcast
10:35 AM 44.6 °F 37.8 °F 39.2 °F 81% 29.67 in 10.0 mi WSW 15.0 mph 21.9 mph N/A   Overcast
10:55 AM 46.4 °F 39.2 °F 39.2 °F 76% 29.67 in 10.0 mi West 18.4 mph - N/A   Overcast
11:15 AM 46.4 °F 40.4 °F 39.2 °F 76% 29.67 in 10.0 mi West 13.8 mph 24.2 mph N/A   Overcast
11:35 AM 46.4 °F 39.8 °F 39.2 °F 76% 29.67 in 10.0 mi West 16.1 mph 20.7 mph N/A   Overcast
11:55 AM 46.4 °F 39.5 °F 37.4 °F 71% 29.67 in 10.0 mi West 17.3 mph 24.2 mph N/A   Overcast
12:15 PM 44.6 °F 36.9 °F 35.6 °F 71% 29.68 in 10.0 mi West 18.4 mph 27.6 mph N/A   Overcast
12:35 PM 44.6 °F 37.4 °F 35.6 °F 71% 29.68 in 10.0 mi West 16.1 mph 27.6 mph N/A   Overcast
12:55 PM 44.6 °F 37.8 °F 35.6 °F 71% 29.69 in 10.0 mi West 15.0 mph 24.2 mph N/A   Overcast
1:15 PM 44.6 °F 37.8 °F 35.6 °F 71% 29.70 in 10.0 mi West 15.0 mph 23.0 mph N/A   Overcast
1:35 PM 44.6 °F 37.4 °F 35.6 °F 71% 29.71 in 10.0 mi West 16.1 mph 23.0 mph N/A   Overcast
1:55 PM 44.6 °F 36.6 °F 33.8 °F 66% 29.71 in 10.0 mi West 19.6 mph 29.9 mph N/A   Overcast
2:15 PM 44.6 °F 36.4 °F 35.6 °F 71% 29.72 in 10.0 mi West 20.7 mph 29.9 mph N/A   Overcast
2:35 PM 44.6 °F 37.2 °F 33.8 °F 66% 29.73 in 10.0 mi West 17.3 mph 28.8 mph N/A   Overcast
2:55 PM 44.6 °F 36.4 °F 33.8 °F 66% 29.74 in 10.0 mi West 20.7 mph 29.9 mph N/A   Overcast
3:15 PM 44.6 °F 36.4 °F 33.8 °F 66% 29.75 in 10.0 mi West 20.7 mph 29.9 mph N/A   Overcast
3:35 PM 42.8 °F 34.3 °F 32.0 °F 66% 29.76 in 10.0 mi West 19.6 mph 29.9 mph N/A   Overcast
3:55 PM 42.8 °F 34.5 °F 33.8 °F 70% 29.77 in 10.0 mi West 18.4 mph 29.9 mph N/A   Overcast
4:15 PM 42.8 °F 33.8 °F 32.0 °F 66% 29.77 in 10.0 mi WNW 21.9 mph 31.1 mph N/A   Overcast
4:35 PM 42.8 °F 33.3 °F 32.0 °F 66% 29.79 in 10.0 mi WNW 24.2 mph 31.1 mph N/A   Overcast
4:55 PM 42.8 °F 35.1 °F 32.0 °F 66% 29.80 in 10.0 mi WNW 16.1 mph 28.8 mph N/A   Overcast
5:15 PM 42.8 °F 34.3 °F 30.2 °F 61% 29.81 in 10.0 mi WNW 19.6 mph 34.5 mph N/A   Overcast
5:35 PM 42.8 °F 34.0 °F 30.2 °F 61% 29.83 in 10.0 mi WNW 20.7 mph 29.9 mph N/A   Overcast
5:55 PM 42.8 °F 33.1 °F 30.2 °F 61% 29.84 in 10.0 mi WNW 25.3 mph 33.4 mph N/A   Overcast
6:15 PM 42.8 °F 34.0 °F 28.4 °F 57% 29.85 in 10.0 mi West 20.7 mph 29.9 mph N/A   Overcast
6:35 PM 41.0 °F 32.5 °F 28.4 °F 61% 29.85 in 10.0 mi WNW 17.3 mph 29.9 mph N/A   Overcast
6:55 PM 41.0 °F 31.6 °F 28.4 °F 61% 29.85 in 10.0 mi WNW 20.7 mph 31.1 mph N/A   Overcast
7:15 PM 41.0 °F 32.2 °F 28.4 °F 61% 29.85 in 10.0 mi WNW 18.4 mph 29.9 mph N/A   Overcast
7:35 PM 42.8 °F 34.3 °F 28.4 °F 57% 29.85 in 10.0 mi WNW 19.6 mph 28.8 mph N/A   Overcast
7:55 PM 42.8 °F 34.5 °F 28.4 °F 57% 29.86 in 10.0 mi WNW 18.4 mph 26.5 mph N/A   Overcast
8:15 PM 42.8 °F 34.3 °F 26.6 °F 53% 29.86 in 10.0 mi WNW 19.6 mph 28.8 mph N/A   Overcast
8:35 PM 42.8 °F 34.0 °F 28.4 °F 57% 29.86 in 10.0 mi West 20.7 mph 26.5 mph N/A   Overcast
8:55 PM 41.0 °F 31.9 °F 28.4 °F 61% 29.87 in 10.0 mi West 19.6 mph 25.3 mph N/A   Overcast
9:15 PM 41.0 °F 33.5 °F 28.4 °F 61% 29.88 in 10.0 mi West 13.8 mph 21.9 mph N/A   Overcast
9:35 PM 41.0 °F 32.5 °F 30.2 °F 65% 29.88 in 10.0 mi West 17.3 mph 24.2 mph N/A   Overcast
9:55 PM 41.0 °F 32.5 °F 30.2 °F 65% 29.88 in 10.0 mi West 17.3 mph 24.2 mph N/A   Overcast
10:15 PM 41.0 °F 31.9 °F 28.4 °F 61% 29.89 in 10.0 mi West 19.6 mph 27.6 mph N/A   Overcast
10:35 PM 39.2 °F 30.8 °F 28.4 °F 65% 29.90 in 10.0 mi West 15.0 mph 29.9 mph N/A   Overcast
10:55 PM 39.2 °F 29.6 °F 28.4 °F 65% 29.90 in 10.0 mi West 19.6 mph 27.6 mph N/A   Overcast
11:15 PM 39.2 °F 30.2 °F 28.4 °F 65% 29.91 in 10.0 mi West 17.3 mph 28.8 mph N/A   Overcast
11:35 PM 39.2 °F 30.2 °F 28.4 °F 65% 29.92 in 10.0 mi West 17.3 mph 24.2 mph N/A   Overcast
11:55 PM 39.2 °F 30.2 °F 28.4 °F 65% 29.92 in 10.0 mi West 17.3 mph 26.5 mph N/A   Overcast